Independence — WDF3297 — position and weather

sailwx.info

Track history (hours):
 
Tides and Currents Weather Stations Pressure Air Temp Water Temp Dewpoint Dewpoint Depression Visibility Wind Speed Wind Dir Waves Ship Positions

Independence

Owner: American Cruise Lines Inc., Delmar, DE. More information available from US FCC via Universal Licensing System and Coast Guard Vessel Documentation Center.

Last reported at 2016-Dec-01 03:20 UTC. Time now 2016-Dec-06 12:10 UTC.
Position N 31°60' W 080°47'.

Length 65 m; draft 2.5 m.

Type: Passenger vessel. MMSI: 367438210.

Date/timePositionNaut miles runAvg speedWind from/ knotsBaromVisibWave heightAir tempDewpointWater temp
2016-Dec-01 03:20N 31°60' W 080°47'6 8.3
2016-Dec-01 02:33N 32°02' W 080°54'7 6.6
2016-Dec-01 01:32N 32°06' W 081°01'4 0.7
2016-Nov-30 20:21N 32°05' W 081°06'0 0.0
2016-Nov-30 19:27N 32°05' W 081°06'0 0.0
2016-Nov-30 18:15N 32°05' W 081°06'0 0.0
2016-Nov-30 17:33N 32°05' W 081°06'0 0.0
2016-Nov-30 16:27N 32°05' W 081°06'0 0.0
2016-Nov-30 15:33N 32°05' W 081°06'0 0.0
2016-Nov-30 14:33N 32°05' W 081°06'0 0.0
2016-Nov-30 13:09N 32°05' W 081°06'0 0.0
2016-Nov-30 12:33N 32°05' W 081°06'0 0.0
2016-Nov-30 11:27N 32°05' W 081°06'0 0.0
2016-Nov-30 10:15N 32°05' W 081°06'0 0.0
2016-Nov-30 09:33N 32°05' W 081°06'0 0.0
2016-Nov-30 08:27N 32°05' W 081°06'0 0.0
2016-Nov-30 07:33N 32°05' W 081°06'0 0.0
2016-Nov-30 06:03N 32°05' W 081°06'0 0.0
2016-Nov-30 05:33N 32°05' W 081°06'0 0.0
2016-Nov-30 04:27N 32°05' W 081°06'0 0.0
2016-Nov-30 03:27N 32°05' W 081°06'0 0.0
2016-Nov-30 02:33N 32°05' W 081°06'0 0.0
2016-Nov-30 00:15N 32°05' W 081°06'0 0.0
2016-Nov-29 23:33N 32°05' W 081°06'0 0.0
2016-Nov-29 22:27N 32°05' W 081°06'0 0.0
2016-Nov-29 21:27N 32°05' W 081°06'0 0.0
2016-Nov-29 20:33N 32°05' W 081°06'0 0.0
2016-Nov-29 19:27N 32°05' W 081°06'0 0.0
2016-Nov-29 18:33N 32°05' W 081°06'0 0.0
2016-Nov-29 17:27N 32°05' W 081°06'0 0.0
2016-Nov-29 16:27N 32°05' W 081°06'0 0.0
2016-Nov-29 15:33N 32°05' W 081°06'0 0.0
2016-Nov-29 14:27N 32°05' W 081°06'0 0.0
2016-Nov-29 13:33N 32°05' W 081°06'0 0.0
2016-Nov-29 12:33N 32°05' W 081°06'0 0.0
2016-Nov-29 11:21N 32°05' W 081°06'0 0.0
2016-Nov-29 10:33N 32°05' W 081°06'0 0.0
2016-Nov-29 09:27N 32°05' W 081°06'0 0.0
2016-Nov-29 08:27N 32°05' W 081°06'0 0.0
2016-Nov-29 07:33N 32°05' W 081°06'0 0.0
2016-Nov-29 06:27N 32°05' W 081°06'0 0.0
2016-Nov-29 05:33N 32°05' W 081°06'0 0.0
2016-Nov-29 04:33N 32°05' W 081°06'0 0.0
2016-Nov-29 03:33N 32°05' W 081°06'0 0.0
2016-Nov-29 02:33N 32°05' W 081°06'0 0.0
2016-Nov-29 01:21N 32°05' W 081°06'0 0.0
2016-Nov-29 00:33N 32°05' W 081°06'0 0.0
2016-Nov-28 23:33N 32°05' W 081°06'7 7.0
2016-Nov-28 22:33N 32°05' W 080°57'6 5.7
2016-Nov-28 21:33N 32°08' W 080°52'6 0.9
2016-Nov-28 14:32N 32°13' W 080°47'  
2016-Nov-23 12:33N 32°09' W 080°52'6 5.9
2016-Nov-23 11:32N 32°05' W 080°57'7 7.4
2016-Nov-23 10:33N 32°05' W 081°05'0 0.2
2016-Nov-23 09:33N 32°05' W 081°06'0 0.0
2016-Nov-23 08:27N 32°05' W 081°06'0 0.0
2016-Nov-23 07:33N 32°05' W 081°06'0 0.0
2016-Nov-23 06:33N 32°05' W 081°06'0 0.0
2016-Nov-23 03:09N 32°05' W 081°06'0 0.0
2016-Nov-23 02:21N 32°05' W 081°06'0 0.0
2016-Nov-23 00:15N 32°05' W 081°06'0 0.0
2016-Nov-22 23:27N 32°05' W 081°06'0 0.0
2016-Nov-22 22:33N 32°05' W 081°06'0 0.0
2016-Nov-22 20:33N 32°05' W 081°06'0 0.0
2016-Nov-22 19:27N 32°05' W 081°06'0 0.0
2016-Nov-22 17:27N 32°05' W 081°06'0 0.0
2016-Nov-22 16:09N 32°05' W 081°06'0 0.0
2016-Nov-22 15:33N 32°05' W 081°06'0 0.0
2016-Nov-22 13:33N 32°05' W 081°06'0 0.0
2016-Nov-22 10:33N 32°05' W 081°06'0 0.0
2016-Nov-22 09:33N 32°05' W 081°06'2 2.3
2016-Nov-22 08:33N 32°05' W 081°03'3 3.1
2016-Nov-22 07:33N 32°04' W 080°59'9 4.5
2016-Nov-22 05:33N 31°56' W 081°04'5 4.7
2016-Nov-22 04:33N 31°51' W 081°06'5 5.1
2016-Nov-22 03:32N 31°47' W 081°10'  
Track history (hours):
 
Tides and Currents Weather Stations Pressure Air Temp Water Temp Dewpoint Dewpoint Depression Visibility Wind Speed Wind Dir Waves Ship Positions

Independence

Owner: American Cruise Lines Inc., Delmar, DE. More information available from US FCC via Universal Licensing System and Coast Guard Vessel Documentation Center.

Last reported at 2016-Dec-01 03:20 UTC. Time now 2016-Dec-06 12:10 UTC.
Position N 31°60' W 080°47'.

Length 65 m; draft 2.5 m.

Type: Passenger vessel. MMSI: 367438210.

Date/timePositionNaut miles runAvg speedWind from/ knotsBaromVisibWave heightAir tempDewpointWater temp
2016-Dec-01 03:20N 31°60' W 080°47'6 8.3
2016-Dec-01 02:33N 32°02' W 080°54'7 6.6
2016-Dec-01 01:32N 32°06' W 081°01'4 0.7
2016-Nov-30 20:21N 32°05' W 081°06'0 0.0
2016-Nov-30 19:27N 32°05' W 081°06'0 0.0
2016-Nov-30 18:15N 32°05' W 081°06'0 0.0
2016-Nov-30 17:33N 32°05' W 081°06'0 0.0
2016-Nov-30 16:27N 32°05' W 081°06'0 0.0
2016-Nov-30 15:33N 32°05' W 081°06'0 0.0
2016-Nov-30 14:33N 32°05' W 081°06'0 0.0
2016-Nov-30 13:09N 32°05' W 081°06'0 0.0
2016-Nov-30 12:33N 32°05' W 081°06'0 0.0
2016-Nov-30 11:27N 32°05' W 081°06'0 0.0
2016-Nov-30 10:15N 32°05' W 081°06'0 0.0
2016-Nov-30 09:33N 32°05' W 081°06'0 0.0
2016-Nov-30 08:27N 32°05' W 081°06'0 0.0
2016-Nov-30 07:33N 32°05' W 081°06'0 0.0
2016-Nov-30 06:03N 32°05' W 081°06'0 0.0
2016-Nov-30 05:33N 32°05' W 081°06'0 0.0
2016-Nov-30 04:27N 32°05' W 081°06'0 0.0
2016-Nov-30 03:27N 32°05' W 081°06'0 0.0
2016-Nov-30 02:33N 32°05' W 081°06'0 0.0
2016-Nov-30 00:15N 32°05' W 081°06'0 0.0
2016-Nov-29 23:33N 32°05' W 081°06'0 0.0
2016-Nov-29 22:27N 32°05' W 081°06'0 0.0
2016-Nov-29 21:27N 32°05' W 081°06'0 0.0
2016-Nov-29 20:33N 32°05' W 081°06'0 0.0
2016-Nov-29 19:27N 32°05' W 081°06'0 0.0
2016-Nov-29 18:33N 32°05' W 081°06'0 0.0
2016-Nov-29 17:27N 32°05' W 081°06'0 0.0
2016-Nov-29 16:27N 32°05' W 081°06'0 0.0
2016-Nov-29 15:33N 32°05' W 081°06'0 0.0
2016-Nov-29 14:27N 32°05' W 081°06'0 0.0
2016-Nov-29 13:33N 32°05' W 081°06'0 0.0
2016-Nov-29 12:33N 32°05' W 081°06'0 0.0
2016-Nov-29 11:21N 32°05' W 081°06'0 0.0
2016-Nov-29 10:33N 32°05' W 081°06'0 0.0
2016-Nov-29 09:27N 32°05' W 081°06'0 0.0
2016-Nov-29 08:27N 32°05' W 081°06'0 0.0
2016-Nov-29 07:33N 32°05' W 081°06'0 0.0
2016-Nov-29 06:27N 32°05' W 081°06'0 0.0
2016-Nov-29 05:33N 32°05' W 081°06'0 0.0
2016-Nov-29 04:33N 32°05' W 081°06'0 0.0
2016-Nov-29 03:33N 32°05' W 081°06'0 0.0
2016-Nov-29 02:33N 32°05' W 081°06'0 0.0
2016-Nov-29 01:21N 32°05' W 081°06'0 0.0
2016-Nov-29 00:33N 32°05' W 081°06'0 0.0
2016-Nov-28 23:33N 32°05' W 081°06'7 7.0
2016-Nov-28 22:33N 32°05' W 080°57'6 5.7
2016-Nov-28 21:33N 32°08' W 080°52'6 0.9
2016-Nov-28 14:32N 32°13' W 080°47'  
2016-Nov-23 12:33N 32°09' W 080°52'6 5.9
2016-Nov-23 11:32N 32°05' W 080°57'7 7.4
2016-Nov-23 10:33N 32°05' W 081°05'0 0.2
2016-Nov-23 09:33N 32°05' W 081°06'0 0.0
2016-Nov-23 08:27N 32°05' W 081°06'0 0.0
2016-Nov-23 07:33N 32°05' W 081°06'0 0.0
2016-Nov-23 06:33N 32°05' W 081°06'0 0.0
2016-Nov-23 03:09N 32°05' W 081°06'0 0.0
2016-Nov-23 02:21N 32°05' W 081°06'0 0.0
2016-Nov-23 00:15N 32°05' W 081°06'0 0.0
2016-Nov-22 23:27N 32°05' W 081°06'0 0.0
2016-Nov-22 22:33N 32°05' W 081°06'0 0.0
2016-Nov-22 20:33N 32°05' W 081°06'0 0.0
2016-Nov-22 19:27N 32°05' W 081°06'0 0.0
2016-Nov-22 17:27N 32°05' W 081°06'0 0.0
2016-Nov-22 16:09N 32°05' W 081°06'0 0.0
2016-Nov-22 15:33N 32°05' W 081°06'0 0.0
2016-Nov-22 13:33N 32°05' W 081°06'0 0.0
2016-Nov-22 10:33N 32°05' W 081°06'0 0.0
2016-Nov-22 09:33N 32°05' W 081°06'2 2.3
2016-Nov-22 08:33N 32°05' W 081°03'3 3.1
2016-Nov-22 07:33N 32°04' W 080°59'9 4.5
2016-Nov-22 05:33N 31°56' W 081°04'5 4.7
2016-Nov-22 04:33N 31°51' W 081°06'5 5.1
2016-Nov-22 03:32N 31°47' W 081°10'  

Dump ship's entire track history